sensor_id;sensor_type;location;lat;lon;timestamp;P1;durP1;ratioP1;P2;durP2;ratioP2
19505;SDS011;9894;50.852;-0.140;2022-11-12T00:00:56;0.10;;;0.10;;
19505;SDS011;9894;50.852;-0.140;2022-11-12T00:03:23;0.17;;;0.17;;
19505;SDS011;9894;50.852;-0.140;2022-11-12T00:05:50;0.20;;;0.20;;
19505;SDS011;9894;50.852;-0.140;2022-11-12T00:08:17;0.20;;;0.20;;
19505;SDS011;9894;50.852;-0.140;2022-11-12T00:10:44;0.20;;;0.20;;
19505;SDS011;9894;50.852;-0.140;2022-11-12T00:13:10;8.00;;;1.95;;
19505;SDS011;9894;50.852;-0.140;2022-11-12T00:15:36;0.10;;;0.10;;
19505;SDS011;9894;50.852;-0.140;2022-11-12T00:18:02;0.10;;;0.10;;
19505;SDS011;9894;50.852;-0.140;2022-11-12T00:20:28;0.52;;;0.52;;
19505;SDS011;9894;50.852;-0.140;2022-11-12T00:22:55;0.20;;;0.20;;
19505;SDS011;9894;50.852;-0.140;2022-11-12T00:25:21;1.00;;;0.95;;
19505;SDS011;9894;50.852;-0.140;2022-11-12T00:27:50;0.32;;;0.32;;
19505;SDS011;9894;50.852;-0.140;2022-11-12T00:30:16;0.10;;;0.10;;
19505;SDS011;9894;50.852;-0.140;2022-11-12T00:32:46;5.25;;;2.63;;
19505;SDS011;9894;50.852;-0.140;2022-11-12T00:35:15;0.20;;;0.20;;
19505;SDS011;9894;50.852;-0.140;2022-11-12T00:37:41;0.20;;;0.20;;
19505;SDS011;9894;50.852;-0.140;2022-11-12T00:40:07;0.17;;;0.17;;
19505;SDS011;9894;50.852;-0.140;2022-11-12T00:42:34;0.20;;;0.20;;
19505;SDS011;9894;50.852;-0.140;2022-11-12T00:45:00;0.10;;;0.10;;
19505;SDS011;9894;50.852;-0.140;2022-11-12T00:47:26;0.10;;;0.10;;
19505;SDS011;9894;50.852;-0.140;2022-11-12T00:49:52;0.10;;;0.10;;
19505;SDS011;9894;50.852;-0.140;2022-11-12T00:52:18;0.43;;;0.40;;
19505;SDS011;9894;50.852;-0.140;2022-11-12T00:54:44;0.38;;;0.20;;
19505;SDS011;9894;50.852;-0.140;2022-11-12T00:57:11;0.73;;;0.73;;
19505;SDS011;9894;50.852;-0.140;2022-11-12T00:59:37;0.45;;;0.45;;
19505;SDS011;9894;50.852;-0.140;2022-11-12T01:02:03;0.10;;;0.10;;
19505;SDS011;9894;50.852;-0.140;2022-11-12T01:04:32;0.57;;;0.30;;
19505;SDS011;9894;50.852;-0.140;2022-11-12T01:06:58;0.68;;;0.45;;
19505;SDS011;9894;50.852;-0.140;2022-11-12T01:09:25;0.28;;;0.28;;
19505;SDS011;9894;50.852;-0.140;2022-11-12T01:11:51;0.95;;;0.77;;
19505;SDS011;9894;50.852;-0.140;2022-11-12T01:14:17;0.20;;;0.20;;
19505;SDS011;9894;50.852;-0.140;2022-11-12T01:16:43;0.10;;;0.10;;
19505;SDS011;9894;50.852;-0.140;2022-11-12T01:19:10;0.90;;;0.45;;
19505;SDS011;9894;50.852;-0.140;2022-11-12T01:21:38;0.10;;;0.10;;
19505;SDS011;9894;50.852;-0.140;2022-11-12T01:24:08;0.75;;;0.75;;
19505;SDS011;9894;50.852;-0.140;2022-11-12T01:26:35;0.47;;;0.47;;
19505;SDS011;9894;50.852;-0.140;2022-11-12T01:29:01;0.43;;;0.43;;
19505;SDS011;9894;50.852;-0.140;2022-11-12T01:31:39;0.10;;;0.10;;
19505;SDS011;9894;50.852;-0.140;2022-11-12T01:34:06;0.65;;;0.65;;
19505;SDS011;9894;50.852;-0.140;2022-11-12T01:36:36;0.15;;;0.15;;
19505;SDS011;9894;50.852;-0.140;2022-11-12T01:39:03;0.10;;;0.10;;
19505;SDS011;9894;50.852;-0.140;2022-11-12T01:41:30;0.10;;;0.10;;
19505;SDS011;9894;50.852;-0.140;2022-11-12T01:46:32;0.30;;;0.30;;
19505;SDS011;9894;50.852;-0.140;2022-11-12T01:49:06;0.17;;;0.17;;
19505;SDS011;9894;50.852;-0.140;2022-11-12T01:51:35;1.33;;;1.10;;
19505;SDS011;9894;50.852;-0.140;2022-11-12T01:54:04;0.75;;;0.75;;
19505;SDS011;9894;50.852;-0.140;2022-11-12T01:56:31;0.70;;;0.70;;
19505;SDS011;9894;50.852;-0.140;2022-11-12T01:59:05;1.80;;;0.93;;
19505;SDS011;9894;50.852;-0.140;2022-11-12T02:01:34;0.10;;;0.10;;
19505;SDS011;9894;50.852;-0.140;2022-11-12T02:04:01;1.00;;;0.65;;
19505;SDS011;9894;50.852;-0.140;2022-11-12T02:06:27;0.20;;;0.20;;
19505;SDS011;9894;50.852;-0.140;2022-11-12T02:08:53;0.25;;;0.25;;
19505;SDS011;9894;50.852;-0.140;2022-11-12T02:11:20;0.38;;;0.38;;
19505;SDS011;9894;50.852;-0.140;2022-11-12T02:13:47;1.25;;;0.65;;
19505;SDS011;9894;50.852;-0.140;2022-11-12T02:18:57;0.60;;;0.60;;
19505;SDS011;9894;50.852;-0.140;2022-11-12T02:21:24;1.35;;;0.73;;
19505;SDS011;9894;50.852;-0.140;2022-11-12T02:23:57;1.67;;;0.60;;
19505;SDS011;9894;50.852;-0.140;2022-11-12T02:26:23;0.88;;;0.47;;
19505;SDS011;9894;50.852;-0.140;2022-11-12T02:28:50;0.22;;;0.22;;
19505;SDS011;9894;50.852;-0.140;2022-11-12T02:31:16;2.45;;;0.73;;
19505;SDS011;9894;50.852;-0.140;2022-11-12T02:33:42;0.70;;;0.70;;
19505;SDS011;9894;50.852;-0.140;2022-11-12T02:36:08;0.80;;;0.68;;
19505;SDS011;9894;50.852;-0.140;2022-11-12T02:38:34;3.85;;;1.75;;
19505;SDS011;9894;50.852;-0.140;2022-11-12T02:41:00;0.25;;;0.25;;
19505;SDS011;9894;50.852;-0.140;2022-11-12T02:43:26;0.13;;;0.13;;
19505;SDS011;9894;50.852;-0.140;2022-11-12T02:45:53;0.20;;;0.20;;
19505;SDS011;9894;50.852;-0.140;2022-11-12T02:48:19;0.28;;;0.28;;
19505;SDS011;9894;50.852;-0.140;2022-11-12T02:50:46;0.10;;;0.10;;
19505;SDS011;9894;50.852;-0.140;2022-11-12T02:53:12;0.10;;;0.10;;
19505;SDS011;9894;50.852;-0.140;2022-11-12T02:55:38;0.20;;;0.20;;
19505;SDS011;9894;50.852;-0.140;2022-11-12T02:58:04;0.20;;;0.20;;
19505;SDS011;9894;50.852;-0.140;2022-11-12T03:00:30;0.20;;;0.20;;
19505;SDS011;9894;50.852;-0.140;2022-11-12T03:02:56;0.30;;;0.30;;
19505;SDS011;9894;50.852;-0.140;2022-11-12T03:05:23;0.20;;;0.20;;
19505;SDS011;9894;50.852;-0.140;2022-11-12T03:07:49;0.20;;;0.20;;
19505;SDS011;9894;50.852;-0.140;2022-11-12T03:10:15;0.20;;;0.20;;
19505;SDS011;9894;50.852;-0.140;2022-11-12T03:12:42;0.20;;;0.20;;
19505;SDS011;9894;50.852;-0.140;2022-11-12T03:15:08;0.10;;;0.10;;
19505;SDS011;9894;50.852;-0.140;2022-11-12T03:17:34;1.33;;;0.65;;
19505;SDS011;9894;50.852;-0.140;2022-11-12T03:20:00;0.20;;;0.20;;
19505;SDS011;9894;50.852;-0.140;2022-11-12T03:22:26;0.20;;;0.20;;
19505;SDS011;9894;50.852;-0.140;2022-11-12T03:24:52;0.20;;;0.20;;
19505;SDS011;9894;50.852;-0.140;2022-11-12T03:27:18;0.10;;;0.10;;
19505;SDS011;9894;50.852;-0.140;2022-11-12T03:29:44;0.10;;;0.10;;
19505;SDS011;9894;50.852;-0.140;2022-11-12T03:32:10;0.20;;;0.20;;
19505;SDS011;9894;50.852;-0.140;2022-11-12T03:34:36;0.17;;;0.17;;
19505;SDS011;9894;50.852;-0.140;2022-11-12T03:37:02;0.20;;;0.20;;
19505;SDS011;9894;50.852;-0.140;2022-11-12T03:39:29;0.10;;;0.10;;
19505;SDS011;9894;50.852;-0.140;2022-11-12T03:41:55;0.20;;;0.20;;
19505;SDS011;9894;50.852;-0.140;2022-11-12T03:44:21;0.20;;;0.20;;
19505;SDS011;9894;50.852;-0.140;2022-11-12T03:46:47;0.20;;;0.20;;
19505;SDS011;9894;50.852;-0.140;2022-11-12T03:49:13;0.20;;;0.20;;
19505;SDS011;9894;50.852;-0.140;2022-11-12T03:51:39;0.10;;;0.10;;
19505;SDS011;9894;50.852;-0.140;2022-11-12T03:54:05;0.20;;;0.20;;
19505;SDS011;9894;50.852;-0.140;2022-11-12T03:56:32;0.20;;;0.20;;
19505;SDS011;9894;50.852;-0.140;2022-11-12T03:58:58;0.20;;;0.20;;
19505;SDS011;9894;50.852;-0.140;2022-11-12T04:01:24;0.20;;;0.20;;
19505;SDS011;9894;50.852;-0.140;2022-11-12T04:03:50;0.20;;;0.20;;
19505;SDS011;9894;50.852;-0.140;2022-11-12T04:06:16;0.20;;;0.20;;
19505;SDS011;9894;50.852;-0.140;2022-11-12T04:09:00;0.20;;;0.20;;
19505;SDS011;9894;50.852;-0.140;2022-11-12T04:11:26;0.20;;;0.20;;
19505;SDS011;9894;50.852;-0.140;2022-11-12T04:13:53;0.20;;;0.20;;
19505;SDS011;9894;50.852;-0.140;2022-11-12T04:16:19;0.20;;;0.20;;
19505;SDS011;9894;50.852;-0.140;2022-11-12T04:19:05;0.20;;;0.20;;
19505;SDS011;9894;50.852;-0.140;2022-11-12T04:21:51;0.20;;;0.20;;
19505;SDS011;9894;50.852;-0.140;2022-11-12T04:24:19;0.20;;;0.20;;
19505;SDS011;9894;50.852;-0.140;2022-11-12T04:27:05;0.20;;;0.20;;
19505;SDS011;9894;50.852;-0.140;2022-11-12T04:29:31;0.20;;;0.20;;
19505;SDS011;9894;50.852;-0.140;2022-11-12T04:32:16;0.20;;;0.20;;
19505;SDS011;9894;50.852;-0.140;2022-11-12T04:34:42;0.35;;;0.35;;
19505;SDS011;9894;50.852;-0.140;2022-11-12T04:37:08;0.20;;;0.20;;
19505;SDS011;9894;50.852;-0.140;2022-11-12T04:39:34;0.20;;;0.20;;
19505;SDS011;9894;50.852;-0.140;2022-11-12T04:42:00;0.20;;;0.20;;
19505;SDS011;9894;50.852;-0.140;2022-11-12T04:44:45;0.20;;;0.20;;
19505;SDS011;9894;50.852;-0.140;2022-11-12T04:47:24;0.20;;;0.20;;
19505;SDS011;9894;50.852;-0.140;2022-11-12T04:49:50;0.20;;;0.20;;
19505;SDS011;9894;50.852;-0.140;2022-11-12T04:52:17;0.20;;;0.20;;
19505;SDS011;9894;50.852;-0.140;2022-11-12T04:54:43;0.10;;;0.10;;
19505;SDS011;9894;50.852;-0.140;2022-11-12T04:57:09;0.20;;;0.20;;
19505;SDS011;9894;50.852;-0.140;2022-11-12T04:59:35;0.20;;;0.20;;
19505;SDS011;9894;50.852;-0.140;2022-11-12T05:02:01;0.17;;;0.17;;
19505;SDS011;9894;50.852;-0.140;2022-11-12T05:04:27;0.20;;;0.20;;
19505;SDS011;9894;50.852;-0.140;2022-11-12T05:06:57;0.20;;;0.20;;
19505;SDS011;9894;50.852;-0.140;2022-11-12T05:09:24;0.55;;;0.55;;
19505;SDS011;9894;50.852;-0.140;2022-11-12T05:11:51;0.20;;;0.20;;
19505;SDS011;9894;50.852;-0.140;2022-11-12T05:14:19;0.20;;;0.20;;
19505;SDS011;9894;50.852;-0.140;2022-11-12T05:16:45;0.20;;;0.20;;
19505;SDS011;9894;50.852;-0.140;2022-11-12T05:19:11;0.20;;;0.20;;
19505;SDS011;9894;50.852;-0.140;2022-11-12T05:21:37;0.20;;;0.20;;
19505;SDS011;9894;50.852;-0.140;2022-11-12T05:24:22;0.20;;;0.20;;
19505;SDS011;9894;50.852;-0.140;2022-11-12T05:26:48;0.20;;;0.20;;
19505;SDS011;9894;50.852;-0.140;2022-11-12T05:29:14;0.20;;;0.20;;
19505;SDS011;9894;50.852;-0.140;2022-11-12T05:31:40;0.20;;;0.20;;
19505;SDS011;9894;50.852;-0.140;2022-11-12T05:34:06;0.20;;;0.20;;
19505;SDS011;9894;50.852;-0.140;2022-11-12T05:36:32;0.20;;;0.20;;
19505;SDS011;9894;50.852;-0.140;2022-11-12T05:38:58;0.20;;;0.20;;
19505;SDS011;9894;50.852;-0.140;2022-11-12T05:41:24;0.20;;;0.20;;
19505;SDS011;9894;50.852;-0.140;2022-11-12T05:43:51;0.20;;;0.20;;
19505;SDS011;9894;50.852;-0.140;2022-11-12T05:46:17;0.20;;;0.20;;
19505;SDS011;9894;50.852;-0.140;2022-11-12T05:48:43;0.20;;;0.20;;
19505;SDS011;9894;50.852;-0.140;2022-11-12T05:51:09;0.20;;;0.20;;
19505;SDS011;9894;50.852;-0.140;2022-11-12T05:53:38;0.20;;;0.20;;
19505;SDS011;9894;50.852;-0.140;2022-11-12T05:56:04;0.47;;;0.47;;
19505;SDS011;9894;50.852;-0.140;2022-11-12T05:58:31;0.20;;;0.20;;
19505;SDS011;9894;50.852;-0.140;2022-11-12T06:00:57;0.20;;;0.20;;
19505;SDS011;9894;50.852;-0.140;2022-11-12T06:03:23;0.20;;;0.20;;
19505;SDS011;9894;50.852;-0.140;2022-11-12T06:05:50;0.20;;;0.20;;
19505;SDS011;9894;50.852;-0.140;2022-11-12T06:08:16;0.10;;;0.10;;
19505;SDS011;9894;50.852;-0.140;2022-11-12T06:10:46;0.20;;;0.20;;
19505;SDS011;9894;50.852;-0.140;2022-11-12T06:13:13;0.10;;;0.10;;
19505;SDS011;9894;50.852;-0.140;2022-11-12T06:15:39;0.20;;;0.20;;
19505;SDS011;9894;50.852;-0.140;2022-11-12T06:18:05;0.20;;;0.20;;
19505;SDS011;9894;50.852;-0.140;2022-11-12T06:20:32;0.40;;;0.40;;
19505;SDS011;9894;50.852;-0.140;2022-11-12T06:22:58;1.20;;;0.50;;
19505;SDS011;9894;50.852;-0.140;2022-11-12T06:25:24;0.20;;;0.20;;
19505;SDS011;9894;50.852;-0.140;2022-11-12T06:27:50;0.20;;;0.20;;
19505;SDS011;9894;50.852;-0.140;2022-11-12T06:30:17;1.13;;;0.60;;
19505;SDS011;9894;50.852;-0.140;2022-11-12T06:32:46;0.20;;;0.20;;
19505;SDS011;9894;50.852;-0.140;2022-11-12T06:35:13;0.47;;;0.47;;
19505;SDS011;9894;50.852;-0.140;2022-11-12T06:37:39;0.10;;;0.10;;
19505;SDS011;9894;50.852;-0.140;2022-11-12T06:40:06;0.10;;;0.10;;
19505;SDS011;9894;50.852;-0.140;2022-11-12T06:42:32;0.10;;;0.10;;
19505;SDS011;9894;50.852;-0.140;2022-11-12T06:44:58;0.17;;;0.17;;
19505;SDS011;9894;50.852;-0.140;2022-11-12T06:47:24;0.20;;;0.20;;
19505;SDS011;9894;50.852;-0.140;2022-11-12T06:49:50;0.10;;;0.10;;
19505;SDS011;9894;50.852;-0.140;2022-11-12T06:52:16;0.20;;;0.20;;
19505;SDS011;9894;50.852;-0.140;2022-11-12T06:54:42;0.95;;;0.45;;
19505;SDS011;9894;50.852;-0.140;2022-11-12T06:57:08;0.10;;;0.10;;
19505;SDS011;9894;50.852;-0.140;2022-11-12T06:59:35;0.20;;;0.20;;
19505;SDS011;9894;50.852;-0.140;2022-11-12T07:02:01;0.10;;;0.10;;
19505;SDS011;9894;50.852;-0.140;2022-11-12T07:04:27;0.40;;;0.40;;
19505;SDS011;9894;50.852;-0.140;2022-11-12T07:06:53;0.20;;;0.20;;
19505;SDS011;9894;50.852;-0.140;2022-11-12T07:09:19;0.10;;;0.10;;
19505;SDS011;9894;50.852;-0.140;2022-11-12T07:11:45;1.65;;;1.35;;
19505;SDS011;9894;50.852;-0.140;2022-11-12T07:14:11;0.10;;;0.10;;
19505;SDS011;9894;50.852;-0.140;2022-11-12T07:16:37;0.10;;;0.10;;
19505;SDS011;9894;50.852;-0.140;2022-11-12T07:19:03;0.10;;;0.10;;
19505;SDS011;9894;50.852;-0.140;2022-11-12T07:21:29;0.10;;;0.10;;
19505;SDS011;9894;50.852;-0.140;2022-11-12T07:23:55;0.10;;;0.10;;
19505;SDS011;9894;50.852;-0.140;2022-11-12T07:26:23;2.65;;;1.17;;
19505;SDS011;9894;50.852;-0.140;2022-11-12T07:28:50;0.10;;;0.10;;
19505;SDS011;9894;50.852;-0.140;2022-11-12T07:31:17;0.20;;;0.20;;
19505;SDS011;9894;50.852;-0.140;2022-11-12T07:33:43;0.10;;;0.10;;
19505;SDS011;9894;50.852;-0.140;2022-11-12T07:36:14;0.57;;;0.47;;
19505;SDS011;9894;50.852;-0.140;2022-11-12T07:38:41;0.28;;;0.28;;
19505;SDS011;9894;50.852;-0.140;2022-11-12T07:41:09;0.10;;;0.10;;
19505;SDS011;9894;50.852;-0.140;2022-11-12T07:43:36;0.10;;;0.10;;
19505;SDS011;9894;50.852;-0.140;2022-11-12T07:46:21;0.20;;;0.20;;
19505;SDS011;9894;50.852;-0.140;2022-11-12T07:48:48;0.35;;;0.35;;
19505;SDS011;9894;50.852;-0.140;2022-11-12T07:53:40;0.32;;;0.32;;
19505;SDS011;9894;50.852;-0.140;2022-11-12T07:56:08;0.10;;;0.10;;
19505;SDS011;9894;50.852;-0.140;2022-11-12T07:58:35;0.10;;;0.10;;
19505;SDS011;9894;50.852;-0.140;2022-11-12T08:03:33;0.10;;;0.10;;
19505;SDS011;9894;50.852;-0.140;2022-11-12T08:06:00;0.10;;;0.10;;
19505;SDS011;9894;50.852;-0.140;2022-11-12T08:08:26;0.10;;;0.10;;
19505;SDS011;9894;50.852;-0.140;2022-11-12T08:10:53;0.10;;;0.10;;
19505;SDS011;9894;50.852;-0.140;2022-11-12T08:13:19;0.10;;;0.10;;
19505;SDS011;9894;50.852;-0.140;2022-11-12T08:15:45;0.10;;;0.10;;
19505;SDS011;9894;50.852;-0.140;2022-11-12T08:18:11;0.10;;;0.10;;
19505;SDS011;9894;50.852;-0.140;2022-11-12T08:20:37;6.82;;;1.73;;
19505;SDS011;9894;50.852;-0.140;2022-11-12T08:23:04;2.35;;;1.45;;
19505;SDS011;9894;50.852;-0.140;2022-11-12T08:25:30;0.55;;;0.55;;
19505;SDS011;9894;50.852;-0.140;2022-11-12T08:27:59;0.47;;;0.47;;
19505;SDS011;9894;50.852;-0.140;2022-11-12T08:30:25;0.10;;;0.10;;
19505;SDS011;9894;50.852;-0.140;2022-11-12T08:32:58;0.10;;;0.10;;
19505;SDS011;9894;50.852;-0.140;2022-11-12T08:35:25;0.55;;;0.40;;
19505;SDS011;9894;50.852;-0.140;2022-11-12T08:37:56;0.10;;;0.10;;
19505;SDS011;9894;50.852;-0.140;2022-11-12T08:40:22;0.10;;;0.10;;
19505;SDS011;9894;50.852;-0.140;2022-11-12T08:42:55;0.10;;;0.10;;
19505;SDS011;9894;50.852;-0.140;2022-11-12T08:45:21;1.30;;;1.20;;
19505;SDS011;9894;50.852;-0.140;2022-11-12T08:47:47;0.20;;;0.20;;
19505;SDS011;9894;50.852;-0.140;2022-11-12T08:50:13;0.63;;;0.63;;
19505;SDS011;9894;50.852;-0.140;2022-11-12T08:52:39;1.40;;;0.70;;
19505;SDS011;9894;50.852;-0.140;2022-11-12T08:55:05;0.10;;;0.10;;
19505;SDS011;9894;50.852;-0.140;2022-11-12T08:57:37;2.65;;;1.58;;
19505;SDS011;9894;50.852;-0.140;2022-11-12T09:00:03;1.15;;;1.00;;
19505;SDS011;9894;50.852;-0.140;2022-11-12T09:02:30;0.10;;;0.10;;
19505;SDS011;9894;50.852;-0.140;2022-11-12T09:04:56;0.22;;;0.22;;
19505;SDS011;9894;50.852;-0.140;2022-11-12T09:07:22;0.10;;;0.10;;
19505;SDS011;9894;50.852;-0.140;2022-11-12T09:09:49;2.08;;;0.57;;
19505;SDS011;9894;50.852;-0.140;2022-11-12T09:12:15;0.22;;;0.22;;
19505;SDS011;9894;50.852;-0.140;2022-11-12T09:14:43;1.00;;;0.90;;
19505;SDS011;9894;50.852;-0.140;2022-11-12T09:17:10;0.10;;;0.10;;
19505;SDS011;9894;50.852;-0.140;2022-11-12T09:19:36;0.93;;;0.75;;
19505;SDS011;9894;50.852;-0.140;2022-11-12T09:22:02;0.70;;;0.70;;
19505;SDS011;9894;50.852;-0.140;2022-11-12T09:24:29;2.00;;;1.63;;
19505;SDS011;9894;50.852;-0.140;2022-11-12T09:26:55;0.73;;;0.70;;
19505;SDS011;9894;50.852;-0.140;2022-11-12T09:29:21;2.00;;;1.85;;
19505;SDS011;9894;50.852;-0.140;2022-11-12T09:31:47;0.10;;;0.10;;
19505;SDS011;9894;50.852;-0.140;2022-11-12T09:34:13;0.73;;;0.70;;
19505;SDS011;9894;50.852;-0.140;2022-11-12T09:36:39;0.20;;;0.20;;
19505;SDS011;9894;50.852;-0.140;2022-11-12T09:39:05;0.38;;;0.38;;
19505;SDS011;9894;50.852;-0.140;2022-11-12T09:41:33;2.35;;;1.38;;
19505;SDS011;9894;50.852;-0.140;2022-11-12T09:44:03;0.68;;;0.68;;
19505;SDS011;9894;50.852;-0.140;2022-11-12T09:51:54;3.30;;;1.40;;
19505;SDS011;9894;50.852;-0.140;2022-11-12T09:54:22;0.30;;;0.30;;
19505;SDS011;9894;50.852;-0.140;2022-11-12T09:56:48;0.30;;;0.30;;
19505;SDS011;9894;50.852;-0.140;2022-11-12T09:59:15;0.13;;;0.13;;
19505;SDS011;9894;50.852;-0.140;2022-11-12T10:07:00;0.28;;;0.28;;
19505;SDS011;9894;50.852;-0.140;2022-11-12T10:09:33;6.70;;;6.18;;
19505;SDS011;9894;50.852;-0.140;2022-11-12T10:19:59;0.90;;;0.85;;
19505;SDS011;9894;50.852;-0.140;2022-11-12T10:25:24;0.20;;;0.20;;
19505;SDS011;9894;50.852;-0.140;2022-11-12T10:27:51;0.13;;;0.13;;
19505;SDS011;9894;50.852;-0.140;2022-11-12T10:30:20;2.55;;;1.50;;
19505;SDS011;9894;50.852;-0.140;2022-11-12T10:32:48;0.45;;;0.45;;
19505;SDS011;9894;50.852;-0.140;2022-11-12T10:35:16;0.30;;;0.30;;
19505;SDS011;9894;50.852;-0.140;2022-11-12T10:43:01;1.35;;;1.15;;
19505;SDS011;9894;50.852;-0.140;2022-11-12T10:45:28;8.60;;;2.08;;
19505;SDS011;9894;50.852;-0.140;2022-11-12T10:47:54;0.40;;;0.40;;
19505;SDS011;9894;50.852;-0.140;2022-11-12T10:52:56;0.40;;;0.40;;
19505;SDS011;9894;50.852;-0.140;2022-11-12T11:00:27;2.20;;;1.65;;
19505;SDS011;9894;50.852;-0.140;2022-11-12T11:02:53;11.32;;;3.60;;
19505;SDS011;9894;50.852;-0.140;2022-11-12T11:05:34;1.92;;;1.75;;
19505;SDS011;9894;50.852;-0.140;2022-11-12T11:08:00;0.35;;;0.35;;
19505;SDS011;9894;50.852;-0.140;2022-11-12T11:10:36;0.30;;;0.30;;
19505;SDS011;9894;50.852;-0.140;2022-11-12T11:13:24;0.30;;;0.30;;
19505;SDS011;9894;50.852;-0.140;2022-11-12T11:16:04;0.68;;;0.68;;
19505;SDS011;9894;50.852;-0.140;2022-11-12T11:18:31;0.75;;;0.73;;
19505;SDS011;9894;50.852;-0.140;2022-11-12T11:26:23;1.30;;;0.82;;
19505;SDS011;9894;50.852;-0.140;2022-11-12T11:28:57;0.55;;;0.55;;
19505;SDS011;9894;50.852;-0.140;2022-11-12T11:36:59;4.55;;;1.83;;
19505;SDS011;9894;50.852;-0.140;2022-11-12T11:44:31;0.50;;;0.50;;
19505;SDS011;9894;50.852;-0.140;2022-11-12T11:47:14;0.70;;;0.70;;
19505;SDS011;9894;50.852;-0.140;2022-11-12T12:00:16;4.75;;;2.45;;
19505;SDS011;9894;50.852;-0.140;2022-11-12T12:05:20;2.60;;;2.50;;
19505;SDS011;9894;50.852;-0.140;2022-11-12T12:15:59;3.10;;;2.90;;
19505;SDS011;9894;50.852;-0.140;2022-11-12T12:21:14;4.18;;;3.85;;
19505;SDS011;9894;50.852;-0.140;2022-11-12T12:26:14;3.33;;;3.13;;
19505;SDS011;9894;50.852;-0.140;2022-11-12T12:28:42;3.28;;;3.08;;
19505;SDS011;9894;50.852;-0.140;2022-11-12T12:31:12;3.47;;;3.28;;
19505;SDS011;9894;50.852;-0.140;2022-11-12T12:33:45;3.60;;;3.33;;
19505;SDS011;9894;50.852;-0.140;2022-11-12T12:36:16;3.92;;;3.72;;
19505;SDS011;9894;50.852;-0.140;2022-11-12T12:38:45;4.25;;;3.95;;
19505;SDS011;9894;50.852;-0.140;2022-11-12T12:43:46;4.85;;;4.55;;
19505;SDS011;9894;50.852;-0.140;2022-11-12T12:46:14;4.60;;;4.30;;
19505;SDS011;9894;50.852;-0.140;2022-11-12T12:48:42;5.63;;;5.28;;
19505;SDS011;9894;50.852;-0.140;2022-11-12T12:51:10;5.38;;;5.07;;
19505;SDS011;9894;50.852;-0.140;2022-11-12T12:53:36;5.80;;;5.47;;
19505;SDS011;9894;50.852;-0.140;2022-11-12T12:56:06;5.90;;;5.50;;
19505;SDS011;9894;50.852;-0.140;2022-11-12T12:58:51;6.22;;;5.82;;
19505;SDS011;9894;50.852;-0.140;2022-11-12T13:08:40;5.70;;;5.30;;
19505;SDS011;9894;50.852;-0.140;2022-11-12T13:11:07;4.95;;;4.65;;
19505;SDS011;9894;50.852;-0.140;2022-11-12T13:13:36;5.57;;;5.22;;
19505;SDS011;9894;50.852;-0.140;2022-11-12T13:16:03;5.28;;;4.97;;
19505;SDS011;9894;50.852;-0.140;2022-11-12T13:21:12;6.72;;;6.13;;
19505;SDS011;9894;50.852;-0.140;2022-11-12T13:23:48;6.00;;;5.60;;
19505;SDS011;9894;50.852;-0.140;2022-11-12T13:31:44;5.35;;;5.05;;
19505;SDS011;9894;50.852;-0.140;2022-11-12T13:34:25;7.60;;;7.05;;
19505;SDS011;9894;50.852;-0.140;2022-11-12T13:36:54;7.13;;;6.63;;
19505;SDS011;9894;50.852;-0.140;2022-11-12T13:39:21;7.57;;;6.90;;
19505;SDS011;9894;50.852;-0.140;2022-11-12T13:41:57;8.25;;;7.60;;
19505;SDS011;9894;50.852;-0.140;2022-11-12T13:44:42;5.72;;;5.40;;
19505;SDS011;9894;50.852;-0.140;2022-11-12T13:47:19;7.55;;;5.70;;
19505;SDS011;9894;50.852;-0.140;2022-11-12T13:49:48;6.00;;;5.60;;
19505;SDS011;9894;50.852;-0.140;2022-11-12T13:52:15;5.40;;;5.10;;
19505;SDS011;9894;50.852;-0.140;2022-11-12T13:54:43;5.35;;;5.05;;
19505;SDS011;9894;50.852;-0.140;2022-11-12T13:59:38;6.22;;;5.82;;
19505;SDS011;9894;50.852;-0.140;2022-11-12T14:02:12;5.60;;;5.20;;
19505;SDS011;9894;50.852;-0.140;2022-11-12T14:04:40;6.60;;;6.20;;
19505;SDS011;9894;50.852;-0.140;2022-11-12T14:20:38;5.00;;;4.70;;
19505;SDS011;9894;50.852;-0.140;2022-11-12T14:23:15;4.82;;;4.50;;
19505;SDS011;9894;50.852;-0.140;2022-11-12T14:25:48;4.72;;;4.43;;
19505;SDS011;9894;50.852;-0.140;2022-11-12T14:28:28;4.03;;;3.83;;
19505;SDS011;9894;50.852;-0.140;2022-11-12T14:30:55;5.18;;;4.45;;
19505;SDS011;9894;50.852;-0.140;2022-11-12T14:33:22;4.20;;;3.33;;
19505;SDS011;9894;50.852;-0.140;2022-11-12T14:35:51;2.05;;;1.95;;
19505;SDS011;9894;50.852;-0.140;2022-11-12T14:38:19;1.48;;;1.48;;
19505;SDS011;9894;50.852;-0.140;2022-11-12T14:40:52;1.38;;;1.35;;
19505;SDS011;9894;50.852;-0.140;2022-11-12T14:46:04;1.10;;;1.10;;
19505;SDS011;9894;50.852;-0.140;2022-11-12T14:48:42;1.58;;;1.55;;
19505;SDS011;9894;50.852;-0.140;2022-11-12T14:51:09;1.75;;;1.65;;
19505;SDS011;9894;50.852;-0.140;2022-11-12T14:53:37;1.30;;;1.30;;
19505;SDS011;9894;50.852;-0.140;2022-11-12T14:56:04;1.70;;;1.42;;
19505;SDS011;9894;50.852;-0.140;2022-11-12T14:58:32;1.00;;;1.00;;
19505;SDS011;9894;50.852;-0.140;2022-11-12T15:01:01;1.80;;;1.70;;
19505;SDS011;9894;50.852;-0.140;2022-11-12T15:03:41;2.70;;;2.60;;
19505;SDS011;9894;50.852;-0.140;2022-11-12T15:06:08;3.30;;;3.10;;
19505;SDS011;9894;50.852;-0.140;2022-11-12T15:08:37;2.60;;;2.50;;
19505;SDS011;9894;50.852;-0.140;2022-11-12T15:11:23;3.40;;;3.20;;
19505;SDS011;9894;50.852;-0.140;2022-11-12T15:13:51;4.18;;;3.97;;
19505;SDS011;9894;50.852;-0.140;2022-11-12T15:16:24;5.70;;;5.40;;
19505;SDS011;9894;50.852;-0.140;2022-11-12T15:19:25;5.50;;;5.20;;
19505;SDS011;9894;50.852;-0.140;2022-11-12T15:24:24;8.48;;;7.88;;
19505;SDS011;9894;50.852;-0.140;2022-11-12T15:26:51;10.30;;;9.50;;
19505;SDS011;9894;50.852;-0.140;2022-11-12T15:29:21;9.30;;;8.70;;
19505;SDS011;9894;50.852;-0.140;2022-11-12T15:31:52;9.48;;;8.77;;
19505;SDS011;9894;50.852;-0.140;2022-11-12T15:34:22;8.77;;;8.18;;
19505;SDS011;9894;50.852;-0.140;2022-11-12T15:36:49;9.18;;;8.57;;
19505;SDS011;9894;50.852;-0.140;2022-11-12T15:39:15;8.43;;;7.85;;
19505;SDS011;9894;50.852;-0.140;2022-11-12T15:41:41;8.70;;;8.10;;
19505;SDS011;9894;50.852;-0.140;2022-11-12T15:44:08;8.35;;;7.75;;
19505;SDS011;9894;50.852;-0.140;2022-11-12T15:46:35;8.60;;;8.00;;
19505;SDS011;9894;50.852;-0.140;2022-11-12T15:49:01;8.60;;;8.00;;
19505;SDS011;9894;50.852;-0.140;2022-11-12T15:51:27;6.90;;;6.40;;
19505;SDS011;9894;50.852;-0.140;2022-11-12T15:53:54;6.60;;;6.20;;
19505;SDS011;9894;50.852;-0.140;2022-11-12T15:56:20;6.50;;;6.10;;
19505;SDS011;9894;50.852;-0.140;2022-11-12T15:58:46;5.30;;;5.00;;
19505;SDS011;9894;50.852;-0.140;2022-11-12T16:01:12;5.50;;;5.20;;
19505;SDS011;9894;50.852;-0.140;2022-11-12T16:03:38;5.60;;;5.30;;
19505;SDS011;9894;50.852;-0.140;2022-11-12T16:06:04;5.50;;;5.20;;
19505;SDS011;9894;50.852;-0.140;2022-11-12T16:08:30;4.50;;;4.30;;
19505;SDS011;9894;50.852;-0.140;2022-11-12T16:10:56;7.07;;;4.50;;
19505;SDS011;9894;50.852;-0.140;2022-11-12T16:13:26;4.22;;;4.03;;
19505;SDS011;9894;50.852;-0.140;2022-11-12T16:15:53;3.00;;;2.88;;
19505;SDS011;9894;50.852;-0.140;2022-11-12T16:18:19;2.40;;;2.30;;
19505;SDS011;9894;50.852;-0.140;2022-11-12T16:20:45;2.28;;;2.17;;
19505;SDS011;9894;50.852;-0.140;2022-11-12T16:23:12;1.70;;;1.70;;
19505;SDS011;9894;50.852;-0.140;2022-11-12T16:25:39;1.48;;;1.45;;
19505;SDS011;9894;50.852;-0.140;2022-11-12T16:28:16;1.50;;;1.50;;
19505;SDS011;9894;50.852;-0.140;2022-11-12T16:30:45;1.00;;;1.00;;
19505;SDS011;9894;50.852;-0.140;2022-11-12T16:33:11;0.80;;;0.80;;
19505;SDS011;9894;50.852;-0.140;2022-11-12T16:35:38;0.70;;;0.70;;
19505;SDS011;9894;50.852;-0.140;2022-11-12T16:38:14;2.60;;;1.60;;
19505;SDS011;9894;50.852;-0.140;2022-11-12T16:40:41;1.75;;;1.50;;
19505;SDS011;9894;50.852;-0.140;2022-11-12T16:43:08;0.50;;;0.50;;
19505;SDS011;9894;50.852;-0.140;2022-11-12T16:45:36;0.40;;;0.40;;
19505;SDS011;9894;50.852;-0.140;2022-11-12T16:48:05;0.85;;;0.85;;
19505;SDS011;9894;50.852;-0.140;2022-11-12T16:50:34;0.30;;;0.30;;
19505;SDS011;9894;50.852;-0.140;2022-11-12T16:53:00;0.43;;;0.40;;
19505;SDS011;9894;50.852;-0.140;2022-11-12T16:55:26;0.30;;;0.30;;
19505;SDS011;9894;50.852;-0.140;2022-11-12T16:57:52;0.20;;;0.20;;
19505;SDS011;9894;50.852;-0.140;2022-11-12T17:00:19;0.30;;;0.30;;